Salamis, Greece
Current Conditions -  °F | °C
As of 10:50 AM on Monday 24 Nov 2014 (Local Time) from LGEL Reporting Station
Broken Clouds Broken Clouds  
Wind Chill: 54°   Ceiling: 7000
Heat Index: 54°   Visibility: 6mi
Dew Point: 43°   Wind: 0mph
Humidity: 67%   Direction: NA
Pressure: 30.24"   Gusts: NA
Location:  37.97°N, 23.48°E
Report Text: LGEL 240750Z 00000KT 9999 FEW020 SCT030 BKN070 12/06 Q1024
Loading
Personal Weather Stations






























Interactive Weather Map New forecast layout! Learn more

10-Day Weather Forecast

Advertisements
Track Severe Weather on mobile